sensor_id;sensor_type;location;lat;lon;timestamp;temperature;humidity
71084;DHT22;58741;52.672;13.548;2023-02-28T00:00:27;-0.30;92.60
71084;DHT22;58741;52.672;13.548;2023-02-28T00:02:53;-0.40;92.60
71084;DHT22;58741;52.672;13.548;2023-02-28T00:05:22;-0.40;92.70
71084;DHT22;58741;52.672;13.548;2023-02-28T00:07:48;-0.50;92.50
71084;DHT22;58741;52.672;13.548;2023-02-28T00:12:46;-0.60;92.40
71084;DHT22;58741;52.672;13.548;2023-02-28T00:15:12;-0.60;92.60
71084;DHT22;58741;52.672;13.548;2023-02-28T00:17:37;-0.70;92.60
71084;DHT22;58741;52.672;13.548;2023-02-28T00:20:05;-0.70;92.60
71084;DHT22;58741;52.672;13.548;2023-02-28T00:22:36;-0.70;92.60
71084;DHT22;58741;52.672;13.548;2023-02-28T00:25:03;-0.80;92.60
71084;DHT22;58741;52.672;13.548;2023-02-28T00:27:29;-0.80;92.90
71084;DHT22;58741;52.672;13.548;2023-02-28T00:29:55;-0.90;92.90
71084;DHT22;58741;52.672;13.548;2023-02-28T00:32:20;-0.90;92.70
71084;DHT22;58741;52.672;13.548;2023-02-28T00:34:46;-1.00;92.60
71084;DHT22;58741;52.672;13.548;2023-02-28T00:37:11;-1.00;93.10
71084;DHT22;58741;52.672;13.548;2023-02-28T00:39:38;-1.00;93.70
71084;DHT22;58741;52.672;13.548;2023-02-28T00:42:05;-1.10;93.60
71084;DHT22;58741;52.672;13.548;2023-02-28T00:44:31;-1.10;93.50
71084;DHT22;58741;52.672;13.548;2023-02-28T00:46:57;-1.10;93.40
71084;DHT22;58741;52.672;13.548;2023-02-28T00:49:24;-1.10;93.60
71084;DHT22;58741;52.672;13.548;2023-02-28T00:51:50;-1.20;94.10
71084;DHT22;58741;52.672;13.548;2023-02-28T00:54:16;-1.10;94.10
71084;DHT22;58741;52.672;13.548;2023-02-28T00:56:42;-1.20;94.00
71084;DHT22;58741;52.672;13.548;2023-02-28T00:59:08;-1.20;93.90
71084;DHT22;58741;52.672;13.548;2023-02-28T01:01:34;-1.20;94.00
71084;DHT22;58741;52.672;13.548;2023-02-28T01:03:59;-1.20;94.00
71084;DHT22;58741;52.672;13.548;2023-02-28T01:06:25;-1.20;94.00
71084;DHT22;58741;52.672;13.548;2023-02-28T01:08:50;-1.20;94.20
71084;DHT22;58741;52.672;13.548;2023-02-28T01:11:17;-1.30;94.30
71084;DHT22;58741;52.672;13.548;2023-02-28T01:13:44;-1.20;94.40
71084;DHT22;58741;52.672;13.548;2023-02-28T01:16:11;-1.30;94.20
71084;DHT22;58741;52.672;13.548;2023-02-28T01:18:38;-1.30;94.30
71084;DHT22;58741;52.672;13.548;2023-02-28T01:21:05;-1.30;94.30
71084;DHT22;58741;52.672;13.548;2023-02-28T01:23:31;-1.30;94.30
71084;DHT22;58741;52.672;13.548;2023-02-28T01:25:57;-1.30;94.50
71084;DHT22;58741;52.672;13.548;2023-02-28T01:28:23;-1.30;94.30
71084;DHT22;58741;52.672;13.548;2023-02-28T01:30:50;-1.30;94.20
71084;DHT22;58741;52.672;13.548;2023-02-28T01:33:16;-1.30;94.20
71084;DHT22;58741;52.672;13.548;2023-02-28T01:35:41;-1.30;94.20
71084;DHT22;58741;52.672;13.548;2023-02-28T01:38:07;-1.30;94.10
71084;DHT22;58741;52.672;13.548;2023-02-28T01:40:33;-1.40;94.10
71084;DHT22;58741;52.672;13.548;2023-02-28T01:42:58;-1.40;94.10
71084;DHT22;58741;52.672;13.548;2023-02-28T01:45:29;-1.40;94.20
71084;DHT22;58741;52.672;13.548;2023-02-28T01:47:58;-1.40;94.30
71084;DHT22;58741;52.672;13.548;2023-02-28T01:50:28;-1.40;94.20
71084;DHT22;58741;52.672;13.548;2023-02-28T01:52:57;-1.40;94.20
71084;DHT22;58741;52.672;13.548;2023-02-28T01:55:26;-1.50;94.10
71084;DHT22;58741;52.672;13.548;2023-02-28T01:57:58;-1.50;94.40
71084;DHT22;58741;52.672;13.548;2023-02-28T02:00:27;-1.50;94.20
71084;DHT22;58741;52.672;13.548;2023-02-28T02:02:57;-1.50;94.30
71084;DHT22;58741;52.672;13.548;2023-02-28T02:05:28;-1.60;94.40
71084;DHT22;58741;52.672;13.548;2023-02-28T02:08:00;-1.60;94.30
71084;DHT22;58741;52.672;13.548;2023-02-28T02:10:40;-1.60;94.30
71084;DHT22;58741;52.672;13.548;2023-02-28T02:18:48;-1.80;94.10
71084;DHT22;58741;52.672;13.548;2023-02-28T02:24:49;-1.90;94.10
71084;DHT22;58741;52.672;13.548;2023-02-28T02:30:21;-1.90;94.40
71084;DHT22;58741;52.672;13.548;2023-02-28T02:33:15;-2.00;94.20
71084;DHT22;58741;52.672;13.548;2023-02-28T02:36:02;-2.00;94.10
71084;DHT22;58741;52.672;13.548;2023-02-28T02:38:52;-2.10;94.20
71084;DHT22;58741;52.672;13.548;2023-02-28T02:41:35;-2.10;94.20
71084;DHT22;58741;52.672;13.548;2023-02-28T02:44:15;-2.10;94.30
71084;DHT22;58741;52.672;13.548;2023-02-28T02:46:45;-2.20;94.20
71084;DHT22;58741;52.672;13.548;2023-02-28T02:49:18;-2.20;94.30
71084;DHT22;58741;52.672;13.548;2023-02-28T02:51:47;-2.20;94.10
71084;DHT22;58741;52.672;13.548;2023-02-28T02:54:15;-2.30;94.60
71084;DHT22;58741;52.672;13.548;2023-02-28T02:56:45;-2.30;94.60
71084;DHT22;58741;52.672;13.548;2023-02-28T02:59:14;-2.30;94.40
71084;DHT22;58741;52.672;13.548;2023-02-28T03:01:50;-2.40;94.30
71084;DHT22;58741;52.672;13.548;2023-02-28T03:04:20;-2.40;94.40
71084;DHT22;58741;52.672;13.548;2023-02-28T03:06:46;-2.40;94.30
71084;DHT22;58741;52.672;13.548;2023-02-28T03:09:13;-2.40;94.30
71084;DHT22;58741;52.672;13.548;2023-02-28T03:11:39;-2.50;94.30
71084;DHT22;58741;52.672;13.548;2023-02-28T03:31:07;-2.70;94.60
71084;DHT22;58741;52.672;13.548;2023-02-28T03:33:41;-2.80;94.50
71084;DHT22;58741;52.672;13.548;2023-02-28T03:36:12;-2.80;94.80
71084;DHT22;58741;52.672;13.548;2023-02-28T03:38:57;-2.80;94.60
71084;DHT22;58741;52.672;13.548;2023-02-28T03:41:42;-2.80;94.60
71084;DHT22;58741;52.672;13.548;2023-02-28T03:44:19;-2.90;94.50
71084;DHT22;58741;52.672;13.548;2023-02-28T03:46:54;-2.90;94.80
71084;DHT22;58741;52.672;13.548;2023-02-28T03:49:26;-2.90;94.70
71084;DHT22;58741;52.672;13.548;2023-02-28T03:51:54;-3.00;94.70
71084;DHT22;58741;52.672;13.548;2023-02-28T03:54:27;-3.00;94.80
71084;DHT22;58741;52.672;13.548;2023-02-28T03:57:11;-3.00;94.80
71084;DHT22;58741;52.672;13.548;2023-02-28T03:59:47;-3.10;94.90
71084;DHT22;58741;52.672;13.548;2023-02-28T04:02:15;-3.00;94.90
71084;DHT22;58741;52.672;13.548;2023-02-28T04:04:40;-3.10;94.80
71084;DHT22;58741;52.672;13.548;2023-02-28T04:07:11;-3.10;95.10
71084;DHT22;58741;52.672;13.548;2023-02-28T04:09:37;-3.10;95.00
71084;DHT22;58741;52.672;13.548;2023-02-28T04:12:03;-3.20;95.10
71084;DHT22;58741;52.672;13.548;2023-02-28T04:14:29;-3.20;95.00
71084;DHT22;58741;52.672;13.548;2023-02-28T04:16:55;-3.20;95.20
71084;DHT22;58741;52.672;13.548;2023-02-28T04:19:20;-3.20;95.20
71084;DHT22;58741;52.672;13.548;2023-02-28T04:21:51;-3.20;95.10
71084;DHT22;58741;52.672;13.548;2023-02-28T04:24:19;-3.30;95.30
71084;DHT22;58741;52.672;13.548;2023-02-28T04:26:46;-3.30;95.20
71084;DHT22;58741;52.672;13.548;2023-02-28T04:29:14;-3.30;95.40
71084;DHT22;58741;52.672;13.548;2023-02-28T04:31:42;-3.30;95.50
71084;DHT22;58741;52.672;13.548;2023-02-28T04:34:08;-3.40;95.60
71084;DHT22;58741;52.672;13.548;2023-02-28T04:36:34;-3.40;95.50
71084;DHT22;58741;52.672;13.548;2023-02-28T04:38:59;-3.40;95.50
71084;DHT22;58741;52.672;13.548;2023-02-28T04:41:26;-3.40;95.60
71084;DHT22;58741;52.672;13.548;2023-02-28T04:43:52;-3.40;95.50
71084;DHT22;58741;52.672;13.548;2023-02-28T04:46:18;-3.50;95.60
71084;DHT22;58741;52.672;13.548;2023-02-28T04:48:44;-3.50;95.40
71084;DHT22;58741;52.672;13.548;2023-02-28T04:51:14;-3.50;95.30
71084;DHT22;58741;52.672;13.548;2023-02-28T04:53:41;-3.50;95.20
71084;DHT22;58741;52.672;13.548;2023-02-28T04:56:09;-3.50;95.40
71084;DHT22;58741;52.672;13.548;2023-02-28T04:58:36;-3.60;95.40
71084;DHT22;58741;52.672;13.548;2023-02-28T05:01:04;-3.60;95.40
71084;DHT22;58741;52.672;13.548;2023-02-28T05:03:29;-3.60;95.50
71084;DHT22;58741;52.672;13.548;2023-02-28T05:05:55;-3.70;95.50
71084;DHT22;58741;52.672;13.548;2023-02-28T05:08:20;-3.70;95.40
71084;DHT22;58741;52.672;13.548;2023-02-28T05:10:46;-3.70;95.50
71084;DHT22;58741;52.672;13.548;2023-02-28T05:13:12;-3.70;95.60
71084;DHT22;58741;52.672;13.548;2023-02-28T05:15:38;-3.70;95.70
71084;DHT22;58741;52.672;13.548;2023-02-28T05:18:04;-3.70;95.90
71084;DHT22;58741;52.672;13.548;2023-02-28T05:20:29;-3.80;95.90
71084;DHT22;58741;52.672;13.548;2023-02-28T05:23:02;-3.80;95.80
71084;DHT22;58741;52.672;13.548;2023-02-28T05:25:28;-3.80;95.70
71084;DHT22;58741;52.672;13.548;2023-02-28T05:27:54;-3.80;95.70
71084;DHT22;58741;52.672;13.548;2023-02-28T05:30:19;-3.90;95.60
71084;DHT22;58741;52.672;13.548;2023-02-28T05:32:50;-3.90;95.70
71084;DHT22;58741;52.672;13.548;2023-02-28T05:35:16;-3.90;95.70
71084;DHT22;58741;52.672;13.548;2023-02-28T05:37:41;-3.90;95.80
71084;DHT22;58741;52.672;13.548;2023-02-28T05:40:08;-3.90;95.70
71084;DHT22;58741;52.672;13.548;2023-02-28T05:42:36;-4.00;95.60
71084;DHT22;58741;52.672;13.548;2023-02-28T05:45:03;-4.00;95.60
71084;DHT22;58741;52.672;13.548;2023-02-28T05:47:29;-4.00;95.70
71084;DHT22;58741;52.672;13.548;2023-02-28T05:49:55;-4.00;95.70
71084;DHT22;58741;52.672;13.548;2023-02-28T05:52:20;-4.00;95.90
71084;DHT22;58741;52.672;13.548;2023-02-28T05:54:46;-4.00;95.80
71084;DHT22;58741;52.672;13.548;2023-02-28T05:57:12;-4.10;96.20
71084;DHT22;58741;52.672;13.548;2023-02-28T05:59:37;-4.00;96.10
71084;DHT22;58741;52.672;13.548;2023-02-28T06:02:06;-4.10;96.40
71084;DHT22;58741;52.672;13.548;2023-02-28T06:04:36;-4.10;96.40
71084;DHT22;58741;52.672;13.548;2023-02-28T06:07:01;-4.10;96.50
71084;DHT22;58741;52.672;13.548;2023-02-28T06:09:27;-4.10;96.60
71084;DHT22;58741;52.672;13.548;2023-02-28T06:11:52;-4.10;96.70
71084;DHT22;58741;52.672;13.548;2023-02-28T06:14:20;-4.10;96.70
71084;DHT22;58741;52.672;13.548;2023-02-28T06:16:46;-4.10;97.00
71084;DHT22;58741;52.672;13.548;2023-02-28T06:19:12;-4.10;97.10
71084;DHT22;58741;52.672;13.548;2023-02-28T06:21:38;-4.10;96.80
71084;DHT22;58741;52.672;13.548;2023-02-28T06:24:04;-4.10;96.90
71084;DHT22;58741;52.672;13.548;2023-02-28T06:26:30;-4.10;96.90
71084;DHT22;58741;52.672;13.548;2023-02-28T06:28:56;-4.10;96.80
71084;DHT22;58741;52.672;13.548;2023-02-28T06:31:22;-4.10;97.10
71084;DHT22;58741;52.672;13.548;2023-02-28T06:33:48;-4.10;97.20
71084;DHT22;58741;52.672;13.548;2023-02-28T06:36:15;-4.10;97.30
71084;DHT22;58741;52.672;13.548;2023-02-28T06:38:41;-4.00;97.40
71084;DHT22;58741;52.672;13.548;2023-02-28T06:41:07;-4.10;97.50
71084;DHT22;58741;52.672;13.548;2023-02-28T06:43:35;-4.00;97.80
71084;DHT22;58741;52.672;13.548;2023-02-28T06:46:05;-4.00;97.70
71084;DHT22;58741;52.672;13.548;2023-02-28T06:48:31;-4.00;97.80
71084;DHT22;58741;52.672;13.548;2023-02-28T06:51:26;-4.00;98.10
71084;DHT22;58741;52.672;13.548;2023-02-28T06:53:52;-3.90;98.10
71084;DHT22;58741;52.672;13.548;2023-02-28T06:56:18;-3.90;98.00
71084;DHT22;58741;52.672;13.548;2023-02-28T06:58:49;-3.80;98.50
71084;DHT22;58741;52.672;13.548;2023-02-28T07:01:16;-3.80;98.70
71084;DHT22;58741;52.672;13.548;2023-02-28T07:03:42;-3.70;99.00
71084;DHT22;58741;52.672;13.548;2023-02-28T07:06:07;-3.70;99.20
71084;DHT22;58741;52.672;13.548;2023-02-28T07:08:34;-3.60;99.90
71084;DHT22;58741;52.672;13.548;2023-02-28T07:10:59;-3.60;99.90
71084;DHT22;58741;52.672;13.548;2023-02-28T07:13:25;-3.50;99.90
71084;DHT22;58741;52.672;13.548;2023-02-28T07:15:58;-3.40;99.90
71084;DHT22;58741;52.672;13.548;2023-02-28T07:18:25;-3.40;99.90
71084;DHT22;58741;52.672;13.548;2023-02-28T07:20:50;-3.20;99.90
71084;DHT22;58741;52.672;13.548;2023-02-28T07:23:16;-3.00;99.90
71084;DHT22;58741;52.672;13.548;2023-02-28T07:25:42;-2.90;99.90
71084;DHT22;58741;52.672;13.548;2023-02-28T07:28:09;-2.70;99.90
71084;DHT22;58741;52.672;13.548;2023-02-28T07:30:34;-2.50;99.90
71084;DHT22;58741;52.672;13.548;2023-02-28T07:33:00;-2.20;99.90
71084;DHT22;58741;52.672;13.548;2023-02-28T07:35:25;-2.00;99.90
71084;DHT22;58741;52.672;13.548;2023-02-28T07:37:51;-1.90;99.90
71084;DHT22;58741;52.672;13.548;2023-02-28T07:40:17;-1.60;99.90
71084;DHT22;58741;52.672;13.548;2023-02-28T07:42:44;-1.40;99.90
71084;DHT22;58741;52.672;13.548;2023-02-28T07:45:10;-1.20;99.90
71084;DHT22;58741;52.672;13.548;2023-02-28T07:47:40;-1.00;99.90
71084;DHT22;58741;52.672;13.548;2023-02-28T07:50:09;-0.80;99.90
71084;DHT22;58741;52.672;13.548;2023-02-28T07:52:36;-0.50;99.90
71084;DHT22;58741;52.672;13.548;2023-02-28T07:55:02;-0.30;99.90
71084;DHT22;58741;52.672;13.548;2023-02-28T07:57:27;-0.10;99.90
71084;DHT22;58741;52.672;13.548;2023-02-28T07:59:53;0.10;99.90
71084;DHT22;58741;52.672;13.548;2023-02-28T08:02:18;0.30;99.90
71084;DHT22;58741;52.672;13.548;2023-02-28T08:04:45;0.60;99.90
71084;DHT22;58741;52.672;13.548;2023-02-28T08:07:12;0.80;99.90
71084;DHT22;58741;52.672;13.548;2023-02-28T08:09:39;1.00;99.90
71084;DHT22;58741;52.672;13.548;2023-02-28T08:12:05;1.30;99.90
71084;DHT22;58741;52.672;13.548;2023-02-28T08:14:31;1.60;99.90
71084;DHT22;58741;52.672;13.548;2023-02-28T08:16:56;1.80;98.30
71084;DHT22;58741;52.672;13.548;2023-02-28T08:19:22;2.00;97.80
71084;DHT22;58741;52.672;13.548;2023-02-28T08:21:48;2.20;97.50
71084;DHT22;58741;52.672;13.548;2023-02-28T08:24:13;2.50;97.10
71084;DHT22;58741;52.672;13.548;2023-02-28T08:26:39;2.70;96.20
71084;DHT22;58741;52.672;13.548;2023-02-28T08:29:04;3.00;96.20
71084;DHT22;58741;52.672;13.548;2023-02-28T08:31:30;3.20;91.00
71084;DHT22;58741;52.672;13.548;2023-02-28T08:33:55;3.40;92.80
71084;DHT22;58741;52.672;13.548;2023-02-28T08:36:25;3.70;92.60
71084;DHT22;58741;52.672;13.548;2023-02-28T08:38:50;3.90;90.10
71084;DHT22;58741;52.672;13.548;2023-02-28T08:41:16;4.10;91.20
71084;DHT22;58741;52.672;13.548;2023-02-28T08:43:42;4.40;90.60
71084;DHT22;58741;52.672;13.548;2023-02-28T08:46:08;4.60;87.20
71084;DHT22;58741;52.672;13.548;2023-02-28T08:48:36;4.70;74.70
71084;DHT22;58741;52.672;13.548;2023-02-28T08:51:12;4.80;70.90
71084;DHT22;58741;52.672;13.548;2023-02-28T08:53:39;4.90;74.00
71084;DHT22;58741;52.672;13.548;2023-02-28T08:56:14;5.00;77.60
71084;DHT22;58741;52.672;13.548;2023-02-28T08:58:41;5.20;81.20
71084;DHT22;58741;52.672;13.548;2023-02-28T09:01:09;5.40;78.00
71084;DHT22;58741;52.672;13.548;2023-02-28T09:03:35;5.60;80.10
71084;DHT22;58741;52.672;13.548;2023-02-28T09:06:01;5.80;71.10
71084;DHT22;58741;52.672;13.548;2023-02-28T09:08:28;5.90;71.90
71084;DHT22;58741;52.672;13.548;2023-02-28T09:10:54;6.10;76.60
71084;DHT22;58741;52.672;13.548;2023-02-28T09:13:22;6.30;68.90
71084;DHT22;58741;52.672;13.548;2023-02-28T09:15:48;6.40;70.90
71084;DHT22;58741;52.672;13.548;2023-02-28T09:18:14;6.40;66.20
71084;DHT22;58741;52.672;13.548;2023-02-28T09:20:41;6.50;66.60
71084;DHT22;58741;52.672;13.548;2023-02-28T09:23:08;6.50;63.00
71084;DHT22;58741;52.672;13.548;2023-02-28T09:25:35;6.60;66.00
71084;DHT22;58741;52.672;13.548;2023-02-28T09:28:00;6.70;66.50
71084;DHT22;58741;52.672;13.548;2023-02-28T09:30:26;6.80;64.60
71084;DHT22;58741;52.672;13.548;2023-02-28T09:32:52;6.80;64.80
71084;DHT22;58741;52.672;13.548;2023-02-28T09:35:22;6.90;66.40
71084;DHT22;58741;52.672;13.548;2023-02-28T09:37:50;7.10;68.10
71084;DHT22;58741;52.672;13.548;2023-02-28T09:40:17;7.20;67.20
71084;DHT22;58741;52.672;13.548;2023-02-28T09:42:46;7.50;70.20
71084;DHT22;58741;52.672;13.548;2023-02-28T09:45:27;7.70;71.10
71084;DHT22;58741;52.672;13.548;2023-02-28T09:47:57;7.80;71.20
71084;DHT22;58741;52.672;13.548;2023-02-28T09:50:38;8.00;72.10
71084;DHT22;58741;52.672;13.548;2023-02-28T09:53:21;8.20;70.40
71084;DHT22;58741;52.672;13.548;2023-02-28T09:55:55;8.30;67.40
71084;DHT22;58741;52.672;13.548;2023-02-28T09:58:24;8.40;65.50
71084;DHT22;58741;52.672;13.548;2023-02-28T10:01:03;8.50;61.80
71084;DHT22;58741;52.672;13.548;2023-02-28T10:03:45;8.50;65.30
71084;DHT22;58741;52.672;13.548;2023-02-28T10:06:20;8.70;64.50
71084;DHT22;58741;52.672;13.548;2023-02-28T10:09:23;8.70;62.40
71084;DHT22;58741;52.672;13.548;2023-02-28T10:11:54;8.80;62.30
71084;DHT22;58741;52.672;13.548;2023-02-28T10:14:23;8.90;63.70
71084;DHT22;58741;52.672;13.548;2023-02-28T10:16:56;9.00;65.80
71084;DHT22;58741;52.672;13.548;2023-02-28T10:20:12;9.00;62.30
71084;DHT22;58741;52.672;13.548;2023-02-28T10:22:22;9.10;64.30
71084;DHT22;58741;52.672;13.548;2023-02-28T10:24:51;9.10;63.00
71084;DHT22;58741;52.672;13.548;2023-02-28T10:27:27;9.20;58.70
71084;DHT22;58741;52.672;13.548;2023-02-28T10:29:56;9.10;60.50
71084;DHT22;58741;52.672;13.548;2023-02-28T10:32:27;9.10;60.20
71084;DHT22;58741;52.672;13.548;2023-02-28T10:35:07;9.10;63.70
71084;DHT22;58741;52.672;13.548;2023-02-28T10:37:40;9.20;63.60
71084;DHT22;58741;52.672;13.548;2023-02-28T10:48:37;9.70;62.90
71084;DHT22;58741;52.672;13.548;2023-02-28T10:51:08;9.80;61.20
71084;DHT22;58741;52.672;13.548;2023-02-28T10:53:37;9.90;62.10
71084;DHT22;58741;52.672;13.548;2023-02-28T11:01:43;10.00;61.90
71084;DHT22;58741;52.672;13.548;2023-02-28T11:06:47;10.00;58.90
71084;DHT22;58741;52.672;13.548;2023-02-28T11:09:39;10.00;59.60
71084;DHT22;58741;52.672;13.548;2023-02-28T11:12:21;10.10;59.50
71084;DHT22;58741;52.672;13.548;2023-02-28T11:14:52;10.20;62.30
71084;DHT22;58741;52.672;13.548;2023-02-28T11:17:22;10.40;62.20
71084;DHT22;58741;52.672;13.548;2023-02-28T11:19:51;10.50;62.20
71084;DHT22;58741;52.672;13.548;2023-02-28T11:22:21;10.50;60.80
71084;DHT22;58741;52.672;13.548;2023-02-28T11:24:50;10.70;61.50
71084;DHT22;58741;52.672;13.548;2023-02-28T11:27:40;10.70;59.30
71084;DHT22;58741;52.672;13.548;2023-02-28T11:32:49;10.80;58.30
71084;DHT22;58741;52.672;13.548;2023-02-28T11:35:30;10.90;58.60
71084;DHT22;58741;52.672;13.548;2023-02-28T11:37:57;11.00;58.80
71084;DHT22;58741;52.672;13.548;2023-02-28T11:40:53;11.00;55.30
71084;DHT22;58741;52.672;13.548;2023-02-28T11:49:20;11.00;59.00
71084;DHT22;58741;52.672;13.548;2023-02-28T11:51:56;11.20;57.80
71084;DHT22;58741;52.672;13.548;2023-02-28T11:57:44;11.30;53.80
71084;DHT22;58741;52.672;13.548;2023-02-28T12:03:31;11.50;56.20
71084;DHT22;58741;52.672;13.548;2023-02-28T12:06:21;11.50;56.60
71084;DHT22;58741;52.672;13.548;2023-02-28T12:09:05;11.70;58.00
71084;DHT22;58741;52.672;13.548;2023-02-28T12:11:52;11.80;55.20
71084;DHT22;58741;52.672;13.548;2023-02-28T12:14:33;11.90;55.70
71084;DHT22;58741;52.672;13.548;2023-02-28T12:17:20;12.00;57.40
71084;DHT22;58741;52.672;13.548;2023-02-28T12:22:30;12.30;56.90
71084;DHT22;58741;52.672;13.548;2023-02-28T12:27:42;12.40;56.20
71084;DHT22;58741;52.672;13.548;2023-02-28T12:30:28;12.50;56.10
71084;DHT22;58741;52.672;13.548;2023-02-28T12:33:03;12.60;54.60
71084;DHT22;58741;52.672;13.548;2023-02-28T12:38:10;12.80;54.50
71084;DHT22;58741;52.672;13.548;2023-02-28T12:43:08;13.00;55.40
71084;DHT22;58741;52.672;13.548;2023-02-28T12:45:42;13.10;51.70
71084;DHT22;58741;52.672;13.548;2023-02-28T12:48:13;13.20;52.40
71084;DHT22;58741;52.672;13.548;2023-02-28T12:50:40;13.30;53.40
71084;DHT22;58741;52.672;13.548;2023-02-28T12:53:23;13.40;53.10
71084;DHT22;58741;52.672;13.548;2023-02-28T13:01:36;13.70;51.30
71084;DHT22;58741;52.672;13.548;2023-02-28T13:04:29;13.90;51.70
71084;DHT22;58741;52.672;13.548;2023-02-28T13:09:41;14.00;51.20
71084;DHT22;58741;52.672;13.548;2023-02-28T13:12:16;14.10;50.30
71084;DHT22;58741;52.672;13.548;2023-02-28T13:14:43;14.20;49.00
71084;DHT22;58741;52.672;13.548;2023-02-28T13:19:46;14.20;47.20
71084;DHT22;58741;52.672;13.548;2023-02-28T13:22:40;14.10;47.60
71084;DHT22;58741;52.672;13.548;2023-02-28T13:28:11;14.00;45.60
71084;DHT22;58741;52.672;13.548;2023-02-28T13:33:29;14.10;45.40
71084;DHT22;58741;52.672;13.548;2023-02-28T13:36:09;14.20;45.70
71084;DHT22;58741;52.672;13.548;2023-02-28T13:38:37;14.40;45.90
71084;DHT22;58741;52.672;13.548;2023-02-28T13:49:32;15.10;44.90
71084;DHT22;58741;52.672;13.548;2023-02-28T13:55:12;15.00;43.00
71084;DHT22;58741;52.672;13.548;2023-02-28T13:58:01;14.90;43.80
71084;DHT22;58741;52.672;13.548;2023-02-28T14:00:46;14.80;41.60
71084;DHT22;58741;52.672;13.548;2023-02-28T14:05:44;13.90;40.10
71084;DHT22;58741;52.672;13.548;2023-02-28T14:08:16;13.50;42.90
71084;DHT22;58741;52.672;13.548;2023-02-28T14:11:02;13.20;43.60
71084;DHT22;58741;52.672;13.548;2023-02-28T14:13:44;12.80;44.20
71084;DHT22;58741;52.672;13.548;2023-02-28T14:16:13;12.50;44.10
71084;DHT22;58741;52.672;13.548;2023-02-28T14:18:58;12.10;43.60
71084;DHT22;58741;52.672;13.548;2023-02-28T14:21:34;11.70;45.90
71084;DHT22;58741;52.672;13.548;2023-02-28T14:24:32;11.40;46.90
71084;DHT22;58741;52.672;13.548;2023-02-28T14:32:40;10.50;49.50
71084;DHT22;58741;52.672;13.548;2023-02-28T14:35:29;10.10;48.40
71084;DHT22;58741;52.672;13.548;2023-02-28T14:38:05;9.80;49.60
71084;DHT22;58741;52.672;13.548;2023-02-28T14:40:34;9.60;50.30
71084;DHT22;58741;52.672;13.548;2023-02-28T14:43:05;9.40;50.90
71084;DHT22;58741;52.672;13.548;2023-02-28T14:45:34;9.30;51.50
71084;DHT22;58741;52.672;13.548;2023-02-28T14:48:01;9.10;50.70
71084;DHT22;58741;52.672;13.548;2023-02-28T14:50:34;8.90;51.90
71084;DHT22;58741;52.672;13.548;2023-02-28T14:53:00;8.70;52.00
71084;DHT22;58741;52.672;13.548;2023-02-28T14:55:30;8.60;52.40
71084;DHT22;58741;52.672;13.548;2023-02-28T14:58:01;8.50;52.90
71084;DHT22;58741;52.672;13.548;2023-02-28T15:00:36;8.40;54.40
71084;DHT22;58741;52.672;13.548;2023-02-28T15:03:19;8.30;54.50
71084;DHT22;58741;52.672;13.548;2023-02-28T15:05:56;8.30;54.30
71084;DHT22;58741;52.672;13.548;2023-02-28T15:08:23;8.30;54.90
71084;DHT22;58741;52.672;13.548;2023-02-28T15:13:46;8.20;54.20
71084;DHT22;58741;52.672;13.548;2023-02-28T15:16:15;8.10;54.40
71084;DHT22;58741;52.672;13.548;2023-02-28T15:18:56;8.10;54.10
71084;DHT22;58741;52.672;13.548;2023-02-28T15:21:32;8.20;56.20
71084;DHT22;58741;52.672;13.548;2023-02-28T15:24:19;8.40;57.20
71084;DHT22;58741;52.672;13.548;2023-02-28T15:26:54;8.70;54.20
71084;DHT22;58741;52.672;13.548;2023-02-28T15:29:24;9.00;53.50
71084;DHT22;58741;52.672;13.548;2023-02-28T15:32:01;9.20;52.80
71084;DHT22;58741;52.672;13.548;2023-02-28T15:34:34;9.20;53.20
71084;DHT22;58741;52.672;13.548;2023-02-28T15:37:01;9.10;51.40
71084;DHT22;58741;52.672;13.548;2023-02-28T15:39:28;8.90;51.90
71084;DHT22;58741;52.672;13.548;2023-02-28T15:42:11;8.70;53.10
71084;DHT22;58741;52.672;13.548;2023-02-28T15:44:37;8.40;52.90
71084;DHT22;58741;52.672;13.548;2023-02-28T15:47:06;8.20;52.20
71084;DHT22;58741;52.672;13.548;2023-02-28T15:50:12;8.00;52.50
71084;DHT22;58741;52.672;13.548;2023-02-28T15:52:34;7.80;52.90
71084;DHT22;58741;52.672;13.548;2023-02-28T15:55:19;7.60;52.70
71084;DHT22;58741;52.672;13.548;2023-02-28T15:57:49;7.40;53.80
71084;DHT22;58741;52.672;13.548;2023-02-28T16:00:19;7.20;54.00
71084;DHT22;58741;52.672;13.548;2023-02-28T16:02:46;7.10;54.70
71084;DHT22;58741;52.672;13.548;2023-02-28T16:07:42;6.80;55.60
71084;DHT22;58741;52.672;13.548;2023-02-28T16:10:11;6.80;55.40
71084;DHT22;58741;52.672;13.548;2023-02-28T16:12:38;6.70;55.30
71084;DHT22;58741;52.672;13.548;2023-02-28T16:15:17;6.60;55.80
71084;DHT22;58741;52.672;13.548;2023-02-28T16:17:43;6.50;55.80
71084;DHT22;58741;52.672;13.548;2023-02-28T16:22:39;6.20;56.30
71084;DHT22;58741;52.672;13.548;2023-02-28T16:25:05;6.10;56.90
71084;DHT22;58741;52.672;13.548;2023-02-28T16:27:36;6.00;56.80
71084;DHT22;58741;52.672;13.548;2023-02-28T16:30:05;5.80;57.20
71084;DHT22;58741;52.672;13.548;2023-02-28T16:32:31;5.70;56.60
71084;DHT22;58741;52.672;13.548;2023-02-28T16:34:59;5.60;57.50
71084;DHT22;58741;52.672;13.548;2023-02-28T16:37:24;5.40;57.80
71084;DHT22;58741;52.672;13.548;2023-02-28T16:39:50;5.40;58.30
71084;DHT22;58741;52.672;13.548;2023-02-28T16:42:22;5.30;58.00
71084;DHT22;58741;52.672;13.548;2023-02-28T16:44:48;5.10;58.70
71084;DHT22;58741;52.672;13.548;2023-02-28T16:47:14;5.00;58.90
71084;DHT22;58741;52.672;13.548;2023-02-28T16:49:40;4.90;59.40
71084;DHT22;58741;52.672;13.548;2023-02-28T16:52:09;4.80;59.80
71084;DHT22;58741;52.672;13.548;2023-02-28T16:54:37;4.70;60.30
71084;DHT22;58741;52.672;13.548;2023-02-28T16:57:04;4.50;60.70
71084;DHT22;58741;52.672;13.548;2023-02-28T16:59:31;4.40;60.80
71084;DHT22;58741;52.672;13.548;2023-02-28T17:01:57;4.30;61.10
71084;DHT22;58741;52.672;13.548;2023-02-28T17:04:24;4.10;61.50
71084;DHT22;58741;52.672;13.548;2023-02-28T17:06:50;4.00;62.10
71084;DHT22;58741;52.672;13.548;2023-02-28T17:09:21;3.80;62.00
71084;DHT22;58741;52.672;13.548;2023-02-28T17:11:47;3.70;62.80
71084;DHT22;58741;52.672;13.548;2023-02-28T17:14:14;3.60;62.80
71084;DHT22;58741;52.672;13.548;2023-02-28T17:16:40;3.50;62.80
71084;DHT22;58741;52.672;13.548;2023-02-28T17:19:11;3.30;63.70
71084;DHT22;58741;52.672;13.548;2023-02-28T17:21:37;3.20;64.10
71084;DHT22;58741;52.672;13.548;2023-02-28T17:24:04;3.10;64.20
71084;DHT22;58741;52.672;13.548;2023-02-28T17:26:30;3.00;64.50
71084;DHT22;58741;52.672;13.548;2023-02-28T17:28:57;2.90;65.00
71084;DHT22;58741;52.672;13.548;2023-02-28T17:31:26;2.80;65.30
71084;DHT22;58741;52.672;13.548;2023-02-28T17:33:53;2.70;66.00
71084;DHT22;58741;52.672;13.548;2023-02-28T17:36:24;2.60;66.00
71084;DHT22;58741;52.672;13.548;2023-02-28T17:38:54;2.50;66.10